Time;durP1;ratioP1;P1;durP2;ratioP2;P2;SDS_P1;SDS_P2;PMS_P1;PMS_P2;Temp;Humidity;BMP_temperature;BMP_pressure;BME280_temperature;BME280_humidity;BME280_pressure;Samples;Min_cycle;Max_cycle;Signal;HPM_P1;HPM_P2
2023/08/12 00:01:51;;;;;;;5.25;3.97;;;;;;;23.01;65.34;95764.13;4766910;30;20744;-82
2023/08/12 00:04:17;;;;;;;4.45;4.05;;;;;;;22.86;66.58;95783.19;4773971;30;20208;-82
2023/08/12 00:06:45;;;;;;;4.13;3.72;;;;;;;22.71;66.58;95796.91;4777225;30;20303;-82
2023/08/12 00:09:12;;;;;;;4.07;3.45;;;;;;;22.71;67.26;95814.47;4776875;30;20231;-82
2023/08/12 00:11:38;;;;;;;4.55;4.15;;;;;;;22.80;66.49;95793.88;4776464;30;20281;-82
2023/08/12 00:14:05;;;;;;;4.25;3.90;;;;;;;22.70;67.85;95820.81;4777876;30;20608;-82
2023/08/12 00:16:32;;;;;;;4.13;3.75;;;;;;;22.60;67.96;95813.59;4766906;30;20687;-79
2023/08/12 00:18:58;;;;;;;4.18;3.88;;;;;;;22.58;67.62;95799.91;4775217;30;20207;-80
2023/08/12 00:21:26;;;;;;;4.40;4.00;;;;;;;22.53;68.41;95825.31;4777219;30;20222;-79
2023/08/12 00:23:54;;;;;;;6.00;4.03;;;;;;;22.65;67.54;95791.88;4776986;30;20223;-80
2023/08/12 00:26:20;;;;;;;4.85;4.45;;;;;;;22.65;68.00;95811.03;4777330;30;20216;-79
2023/08/12 00:28:49;;;;;;;4.22;3.92;;;;;;;22.77;66.82;95781.19;4760954;30;20235;-79
2023/08/12 00:31:16;;;;;;;5.72;4.60;;;;;;;22.77;67.16;95792.53;4758438;30;20204;-79
2023/08/12 00:33:42;;;;;;;7.13;3.45;;;;;;;22.78;67.45;95783.63;4763851;30;20212;-79
2023/08/12 00:36:09;;;;;;;4.05;3.75;;;;;;;22.78;67.50;95791.50;4776668;30;20215;-79
2023/08/12 00:38:35;;;;;;;5.40;4.22;;;;;;;22.80;67.38;95776.28;4761604;30;20219;-80
2023/08/12 00:41:04;;;;;;;3.70;3.33;;;;;;;22.71;68.10;95796.09;4774829;30;20252;-80
2023/08/12 00:43:30;;;;;;;4.35;3.95;;;;;;;22.71;67.89;95788.22;4777548;30;20227;-79
2023/08/12 00:45:57;;;;;;;4.38;3.97;;;;;;;22.72;67.79;95793.22;4761220;30;20210;-79
2023/08/12 00:48:23;;;;;;;4.53;4.13;;;;;;;22.69;68.09;95796.38;4758760;30;20232;-79
2023/08/12 00:50:50;;;;;;;4.90;4.50;;;;;;;22.66;68.28;95796.06;4770940;30;20678;-79
2023/08/12 00:53:17;;;;;;;5.00;4.55;;;;;;;22.62;68.66;95793.16;4776225;30;20606;-79
2023/08/12 00:55:44;;;;;;;4.78;4.00;;;;;;;22.65;68.17;95794.50;4775495;30;20242;-79
2023/08/12 00:58:12;;;;;;;4.10;3.70;;;;;;;22.61;68.33;95793.38;4764027;30;20211;-79
2023/08/12 01:00:38;;;;;;;7.13;4.10;;;;;;;22.51;69.06;95807.22;4758627;30;20212;-79
2023/08/12 01:03:06;;;;;;;6.03;4.47;;;;;;;22.36;70.19;95817.50;4758755;30;20675;-79
2023/08/12 01:05:34;;;;;;;4.50;4.10;;;;;;;22.37;69.68;95813.84;4768137;30;20211;-80
2023/08/12 01:08:00;;;;;;;4.20;3.80;;;;;;;22.35;69.78;95808.84;4776727;30;20245;-80
2023/08/12 01:10:33;;;;;;;4.90;4.00;;;;;;;22.32;70.04;95808.56;4773300;30;20208;-79
2023/08/12 01:13:25;;;;;;;4.60;3.80;;;;;;;22.22;70.93;95827.59;4768486;30;20239;-79
2023/08/12 01:15:56;;;;;;;3.90;3.60;;;;;;;22.15;71.24;95839.28;4758873;30;20642;-79
2023/08/12 01:18:25;;;;;;;5.07;4.60;;;;;;;22.01;71.73;95844.88;4773660;30;20215;-79
2023/08/12 01:20:51;;;;;;;4.38;3.92;;;;;;;21.93;72.51;95854.97;4759863;30;20767;-82
2023/08/12 01:23:20;;;;;;;3.80;3.50;;;;;;;22.01;71.67;95838.84;4765468;30;20228;-82
2023/08/12 01:25:47;;;;;;;4.15;3.78;;;;;;;22.09;71.61;95840.25;4774319;30;20208;-82
2023/08/12 01:28:13;;;;;;;4.22;3.90;;;;;;;21.99;72.08;95844.28;4776580;30;20235;-82
2023/08/12 01:31:04;;;;;;;4.32;3.92;;;;;;;21.94;72.48;95846.03;4776641;30;20219;-81
2023/08/12 01:33:40;;;;;;;5.38;3.95;;;;;;;21.92;72.55;95848.94;4775611;30;20235;-80
2023/08/12 01:36:12;;;;;;;4.15;3.85;;;;;;;21.92;72.43;95848.13;4775585;30;20589;-79
2023/08/12 01:38:41;;;;;;;4.20;3.80;;;;;;;21.92;71.89;95838.44;4772544;30;20215;-79
2023/08/12 01:41:10;;;;;;;4.75;3.75;;;;;;;21.81;72.72;95855.03;4759866;30;20232;-80
2023/08/12 01:43:36;;;;;;;5.30;4.40;;;;;;;21.81;72.63;95862.91;4760413;30;20227;-79
2023/08/12 01:46:03;;;;;;;6.97;3.40;;;;;;;21.73;73.14;95863.34;4770018;30;20215;-78
2023/08/12 01:48:29;;;;;;;5.05;3.88;;;;;;;21.67;73.89;95878.19;4769675;30;20242;-79
2023/08/12 01:50:56;;;;;;;4.00;3.70;;;;;;;21.63;73.78;95863.97;4759922;30;20214;-79
2023/08/12 01:53:22;;;;;;;6.35;4.18;;;;;;;21.57;74.25;95885.06;4764228;30;20227;-79
2023/08/12 01:55:51;;;;;;;4.10;3.80;;;;;;;21.57;74.29;95879.81;4767634;30;20655;-79
2023/08/12 01:58:17;;;;;;;4.32;3.90;;;;;;;21.55;74.46;95882.69;4771726;30;20235;-80
2023/08/12 02:00:44;;;;;;;4.75;4.32;;;;;;;21.51;75.00;95888.66;4773124;30;20211;-79
2023/08/12 02:03:10;;;;;;;5.32;4.10;;;;;;;21.52;74.48;95883.19;4773330;30;20227;-79
2023/08/12 02:05:37;;;;;;;6.00;4.13;;;;;;;21.52;74.48;95885.81;4772068;30;20211;-80
2023/08/12 02:08:04;;;;;;;4.90;4.40;;;;;;;21.51;74.60;95883.41;4773334;30;20745;-79
2023/08/12 02:10:31;;;;;;;4.85;4.45;;;;;;;21.50;74.78;95884.44;4771356;30;20211;-79
2023/08/12 02:12:58;;;;;;;5.63;4.47;;;;;;;21.55;74.38;95871.44;4772870;30;20653;-79
2023/08/12 02:15:25;;;;;;;4.82;4.43;;;;;;;21.52;74.78;95874.53;4772604;30;20631;-79
2023/08/12 02:17:51;;;;;;;4.97;4.50;;;;;;;21.41;75.51;95881.41;4771584;30;20894;-79
2023/08/12 02:20:18;;;;;;;4.40;3.90;;;;;;;21.31;76.33;95903.00;4772796;30;20224;-79
2023/08/12 02:22:44;;;;;;;4.82;4.28;;;;;;;21.27;76.54;95904.50;4772812;30;20339;-79
2023/08/12 02:25:11;;;;;;;4.30;4.00;;;;;;;21.34;76.14;95899.13;4760702;30;20303;-79
2023/08/12 02:27:37;;;;;;;5.10;4.70;;;;;;;21.36;75.79;95889.97;4766846;30;20211;-79
2023/08/12 02:30:06;;;;;;;4.28;3.97;;;;;;;21.42;75.60;95882.22;4772460;30;20208;-79
2023/08/12 02:32:33;;;;;;;5.38;4.20;;;;;;;21.46;75.49;95873.66;4771965;30;20247;-79
2023/08/12 02:34:59;;;;;;;4.80;4.40;;;;;;;21.53;75.02;95874.28;4772696;30;20807;-80
2023/08/12 02:37:26;;;;;;;4.20;3.85;;;;;;;21.51;75.06;95859.84;4773071;30;20211;-78
2023/08/12 02:39:52;;;;;;;4.78;4.38;;;;;;;21.46;75.38;95875.47;4771872;30;20211;-79
2023/08/12 02:42:18;;;;;;;4.55;4.15;;;;;;;21.41;75.55;95876.16;4771004;30;20236;-79
2023/08/12 02:44:45;;;;;;;4.85;4.35;;;;;;;21.19;76.61;95893.56;4772104;30;20219;-80
2023/08/12 02:47:12;;;;;;;4.53;4.20;;;;;;;21.02;77.97;95923.13;4771057;30;20254;-79
2023/08/12 02:49:39;;;;;;;4.97;4.40;;;;;;;20.84;79.19;95933.78;4772021;30;20253;-79
2023/08/12 02:52:06;;;;;;;4.80;4.40;;;;;;;20.74;78.99;95922.31;4772485;30;20743;-78
2023/08/12 02:54:32;;;;;;;4.28;3.97;;;;;;;20.63;80.30;95956.13;4772067;30;20218;-79
2023/08/12 02:56:58;;;;;;;4.78;4.15;;;;;;;20.76;79.31;95934.16;4772536;30;20619;-79
2023/08/12 02:59:25;;;;;;;4.70;4.18;;;;;;;20.89;78.82;95925.22;4771179;30;20219;-78
2023/08/12 03:01:52;;;;;;;6.50;4.40;;;;;;;21.01;77.94;95907.66;4768922;30;20239;-79
2023/08/12 03:04:20;;;;;;;4.53;4.13;;;;;;;21.10;77.49;95895.00;4770975;30;20724;-79
2023/08/12 03:06:46;;;;;;;4.47;4.18;;;;;;;21.13;77.23;95892.69;4770326;30;20203;-78
2023/08/12 03:09:12;;;;;;;4.50;4.20;;;;;;;21.12;76.94;95893.72;4771308;30;20235;-79
2023/08/12 03:11:39;;;;;;;5.05;4.55;;;;;;;21.06;77.32;95894.66;4771419;30;20694;-80
2023/08/12 03:14:05;;;;;;;4.63;4.07;;;;;;;20.98;77.87;95906.28;4770591;30;20222;-79
2023/08/12 03:16:32;;;;;;;4.85;4.20;;;;;;;20.89;78.39;95910.31;4769415;30;20211;-79
2023/08/12 03:18:58;;;;;;;5.57;4.22;;;;;;;20.87;78.92;95924.66;4771128;30;20208;-78
2023/08/12 03:21:26;;;;;;;5.05;4.25;;;;;;;20.88;78.19;95905.31;4770752;30;20200;-79
2023/08/12 03:23:52;;;;;;;4.57;4.28;;;;;;;20.82;78.42;95914.09;4770520;30;20203;-79
2023/08/12 03:26:19;;;;;;;4.30;4.00;;;;;;;20.81;78.56;95920.34;4770937;30;20207;-79
2023/08/12 03:28:45;;;;;;;4.90;4.20;;;;;;;20.84;78.06;95907.59;4769720;30;20227;-79
2023/08/12 03:31:12;;;;;;;4.38;4.00;;;;;;;20.92;77.51;95901.22;4768763;30;20990;-78
2023/08/12 03:33:38;;;;;;;7.13;4.63;;;;;;;20.97;76.91;95889.00;4770505;30;20227;-78
2023/08/12 03:36:05;;;;;;;4.68;4.28;;;;;;;20.92;77.44;95886.28;4770438;30;20208;-78
2023/08/12 03:38:33;;;;;;;5.05;4.47;;;;;;;20.66;78.43;95915.63;4771106;30;20219;-78
2023/08/12 03:40:59;;;;;;;4.90;4.40;;;;;;;20.49;79.57;95933.06;4770998;30;20204;-78
2023/08/12 03:43:25;;;;;;;5.32;4.88;;;;;;;20.26;81.53;95960.00;4769723;30;20236;-79
2023/08/12 03:45:52;;;;;;;4.57;4.18;;;;;;;20.14;82.56;95980.13;4769458;30;20211;-78
2023/08/12 03:48:18;;;;;;;4.90;4.50;;;;;;;20.18;81.91;95974.22;4768493;30;20675;-78
2023/08/12 03:50:46;;;;;;;4.65;4.18;;;;;;;20.26;81.81;95973.84;4769410;30;20208;-79
2023/08/12 03:53:13;;;;;;;4.72;4.43;;;;;;;20.32;81.41;95964.31;4770278;30;20228;-79
2023/08/12 03:55:42;;;;;;;4.85;4.45;;;;;;;20.24;81.86;95969.88;4769468;30;20204;-78
2023/08/12 03:58:08;;;;;;;5.07;4.68;;;;;;;20.28;81.53;95958.75;4769517;30;20307;-79
2023/08/12 04:00:35;;;;;;;5.63;4.40;;;;;;;20.33;81.50;95955.44;4771348;30;20301;-80
2023/08/12 04:03:01;;;;;;;4.95;4.45;;;;;;;20.39;81.47;95956.41;4770914;30;20275;-80
2023/08/12 04:05:27;;;;;;;5.70;4.75;;;;;;;20.44;80.76;95944.19;4771524;30;20222;-80
2023/08/12 04:07:54;;;;;;;5.75;4.72;;;;;;;20.53;80.12;95935.00;4761161;30;20218;-79
2023/08/12 04:10:20;;;;;;;5.20;4.75;;;;;;;20.55;79.57;95925.09;4769614;30;20242;-80
2023/08/12 04:12:48;;;;;;;5.57;4.50;;;;;;;20.60;78.72;95913.91;4770028;30;20232;-79
2023/08/12 04:15:14;;;;;;;5.18;4.68;;;;;;;20.62;79.11;95915.28;4768621;30;20222;-80
2023/08/12 04:17:41;;;;;;;5.30;4.80;;;;;;;20.65;78.61;95909.59;4761500;30;20207;-79
2023/08/12 04:20:08;;;;;;;5.28;4.78;;;;;;;20.50;79.47;95922.38;4768619;30;20242;-80
2023/08/12 04:22:35;;;;;;;6.60;4.80;;;;;;;20.49;79.30;95917.34;4769393;30;20257;-79
2023/08/12 04:25:01;;;;;;;6.13;4.53;;;;;;;20.53;79.16;95921.91;4767106;30;20242;-80
2023/08/12 04:27:28;;;;;;;4.80;4.40;;;;;;;20.62;78.88;95917.09;4766808;30;20204;-79
2023/08/12 04:29:56;;;;;;;4.40;4.00;;;;;;;20.64;78.56;95913.22;4772270;30;20231;-79
2023/08/12 04:32:22;;;;;;;5.55;4.32;;;;;;;20.71;78.20;95897.41;4771661;30;20238;-79
2023/08/12 04:34:48;;;;;;;5.03;4.20;;;;;;;20.69;78.36;95904.69;4771966;30;20218;-79
2023/08/12 04:37:15;;;;;;;4.55;4.10;;;;;;;20.77;77.69;95903.53;4770771;30;20587;-80
2023/08/12 04:39:42;;;;;;;6.55;4.20;;;;;;;20.81;77.64;95892.34;4771541;30;20212;-79
2023/08/12 04:42:08;;;;;;;4.90;4.10;;;;;;;20.84;77.35;95889.28;4772030;30;20612;-80
2023/08/12 04:44:35;;;;;;;4.50;4.10;;;;;;;20.88;77.31;95892.22;4771728;30;20227;-80
2023/08/12 04:47:03;;;;;;;7.30;4.45;;;;;;;20.91;77.22;95892.56;4772482;30;20268;-80
2023/08/12 04:49:30;;;;;;;4.80;4.22;;;;;;;20.91;77.59;95889.16;4771355;30;20275;-80
2023/08/12 04:51:56;;;;;;;4.63;4.10;;;;;;;20.95;77.56;95895.50;4770332;30;20323;-79
2023/08/12 04:54:22;;;;;;;4.55;4.10;;;;;;;21.00;76.74;95882.50;4763039;30;20216;-80
2023/08/12 04:56:49;;;;;;;4.85;4.28;;;;;;;21.07;76.49;95870.06;4771802;30;20215;-80
2023/08/12 04:59:15;;;;;;;5.00;4.03;;;;;;;21.09;76.57;95875.88;4771139;30;20200;-80
2023/08/12 05:01:42;;;;;;;4.40;3.92;;;;;;;21.12;76.61;95871.97;4771443;30;20208;-80
2023/08/12 05:04:09;;;;;;;4.60;4.20;;;;;;;21.02;77.34;95890.91;4756013;30;20911;-80
2023/08/12 05:06:36;;;;;;;4.50;4.10;;;;;;;21.03;77.41;95890.69;4771664;30;20215;-80
2023/08/12 05:09:02;;;;;;;7.43;4.53;;;;;;;21.20;76.57;95876.84;4768946;30;20756;-80
2023/08/12 05:11:29;;;;;;;4.68;4.28;;;;;;;21.30;76.29;95859.50;4771738;30;20223;-80
2023/08/12 05:13:55;;;;;;;4.38;3.97;;;;;;;21.37;76.03;95859.34;4770944;30;20304;-79
2023/08/12 05:16:21;;;;;;;4.35;3.90;;;;;;;21.42;75.75;95850.78;4759949;30;20211;-80
2023/08/12 05:18:48;;;;;;;4.18;3.78;;;;;;;21.44;75.46;95840.84;4771528;30;20624;-79
2023/08/12 05:21:15;;;;;;;4.97;4.13;;;;;;;21.54;75.15;95839.19;4772084;30;20219;-80
2023/08/12 05:23:42;;;;;;;4.22;3.88;;;;;;;21.56;75.14;95834.47;4769521;30;20239;-80
2023/08/12 05:26:08;;;;;;;4.38;3.97;;;;;;;21.62;74.30;95817.03;4770852;30;20736;-80
2023/08/12 05:28:35;;;;;;;6.43;4.45;;;;;;;21.73;73.67;95804.88;4771628;30;20211;-79
2023/08/12 05:31:01;;;;;;;4.93;3.75;;;;;;;21.71;73.28;95795.41;4770245;30;20215;-80
2023/08/12 05:33:27;;;;;;;4.75;3.92;;;;;;;21.79;72.90;95788.16;4770675;30;20242;-80
2023/08/12 05:35:54;;;;;;;4.18;3.88;;;;;;;21.85;72.78;95785.38;4753458;30;20220;-80
2023/08/12 05:38:22;;;;;;;4.55;4.15;;;;;;;21.94;71.91;95762.13;4752798;30;20216;-79
2023/08/12 05:40:48;;;;;;;4.82;4.10;;;;;;;21.97;72.50;95778.19;4762142;30;20883;-80
2023/08/12 05:43:14;;;;;;;4.38;3.67;;;;;;;22.08;72.35;95779.16;4770230;30;20234;-80
2023/08/12 05:45:41;;;;;;;5.80;3.97;;;;;;;22.11;72.27;95770.81;4770439;30;20906;-80
2023/08/12 05:48:09;;;;;;;6.45;3.88;;;;;;;22.19;71.19;95756.44;4771052;30;20212;-80
2023/08/12 05:50:35;;;;;;;5.45;3.70;;;;;;;22.18;71.28;95747.00;4768429;30;20232;-79
2023/08/12 05:53:01;;;;;;;3.70;3.40;;;;;;;22.29;71.62;95748.72;4752770;30;20262;-80
2023/08/12 05:55:29;;;;;;;3.55;3.25;;;;;;;22.37;70.81;95745.63;4752331;30;20211;-80
2023/08/12 05:57:55;;;;;;;3.72;3.42;;;;;;;22.49;69.29;95706.94;4769288;30;20689;-80
2023/08/12 06:00:22;;;;;;;4.35;3.72;;;;;;;22.57;68.89;95695.19;4770684;30;20218;-80
2023/08/12 06:02:48;;;;;;;3.67;3.38;;;;;;;22.61;69.22;95701.53;4770319;30;20235;-80
2023/08/12 06:05:15;;;;;;;4.50;3.70;;;;;;;22.70;68.77;95692.97;4762091;30;20219;-79
2023/08/12 06:07:41;;;;;;;4.60;3.67;;;;;;;22.77;68.70;95684.88;4753309;30;20219;-79
2023/08/12 06:10:08;;;;;;;3.83;3.53;;;;;;;22.77;68.12;95653.38;4751581;30;20228;-80
2023/08/12 06:12:36;;;;;;;3.80;3.42;;;;;;;22.77;67.82;95648.13;4757901;30;20681;-80
2023/08/12 06:15:03;;;;;;;5.63;3.70;;;;;;;22.80;67.67;95652.09;4769839;30;20222;-80
2023/08/12 06:17:29;;;;;;;4.03;3.63;;;;;;;22.85;67.69;95650.31;4769316;30;20227;-80
2023/08/12 06:19:56;;;;;;;3.72;3.15;;;;;;;22.80;67.03;95624.00;4769716;30;20490;-80
2023/08/12 06:22:22;;;;;;;4.75;3.60;;;;;;;22.91;66.73;95619.59;4769177;30;20234;-80
2023/08/12 06:24:48;;;;;;;3.72;3.42;;;;;;;22.87;67.54;95629.84;4769191;30;20219;-80
2023/08/12 06:27:15;;;;;;;3.72;3.42;;;;;;;22.95;67.54;95652.19;4769965;30;20222;-80
2023/08/12 06:29:43;;;;;;;3.63;3.33;;;;;;;23.07;67.29;95648.34;4768402;30;20671;-80
2023/08/12 06:32:12;;;;;;;3.55;3.35;;;;;;;23.19;66.71;95621.88;4769106;30;20231;-80
2023/08/12 06:34:39;;;;;;;4.30;3.40;;;;;;;23.20;66.14;95612.97;4769485;30;20265;-80
2023/08/12 06:37:05;;;;;;;3.70;3.40;;;;;;;23.32;65.95;95615.38;4770433;30;20686;-82
2023/08/12 06:39:31;;;;;;;3.53;3.10;;;;;;;23.44;65.69;95597.56;4773297;30;20219;-82
2023/08/12 06:41:58;;;;;;;4.70;3.50;;;;;;;23.47;65.21;95577.88;4773108;30;20236;-83
2023/08/12 06:44:25;;;;;;;3.85;3.50;;;;;;;23.44;65.06;95576.56;4771808;30;20215;-82
2023/08/12 06:46:53;;;;;;;3.72;3.35;;;;;;;23.41;65.58;95577.06;4772544;30;20211;-79
2023/08/12 06:49:19;;;;;;;6.45;3.33;;;;;;;23.49;65.83;95581.00;4769923;30;20434;-80
2023/08/12 06:51:45;;;;;;;3.83;3.38;;;;;;;23.58;65.73;95577.69;4755153;30;20232;-80
2023/08/12 06:54:12;;;;;;;4.65;3.50;;;;;;;23.58;66.76;95616.31;4754812;30;20216;-80
2023/08/12 06:56:38;;;;;;;3.38;3.15;;;;;;;23.58;65.62;95574.25;4754918;30;20222;-79
2023/08/12 06:59:05;;;;;;;3.35;3.05;;;;;;;23.61;64.49;95526.44;4762814;30;20207;-80
2023/08/12 07:01:31;;;;;;;3.63;3.33;;;;;;;23.66;64.86;95555.38;4771153;30;20224;-80
2023/08/12 07:03:59;;;;;;;3.75;3.28;;;;;;;23.68;63.98;95530.38;4772813;30;20215;-80
2023/08/12 07:06:25;;;;;;;3.55;2.90;;;;;;;23.77;64.09;95534.09;4771885;30;20200;-80
2023/08/12 07:08:52;;;;;;;3.97;3.20;;;;;;;23.85;65.05;95559.09;4771330;30;20215;-80
2023/08/12 07:11:18;;;;;;;4.22;3.30;;;;;;;23.96;64.38;95546.72;4772315;30;20239;-80
2023/08/12 07:13:46;;;;;;;3.50;3.22;;;;;;;24.10;63.61;95518.84;4770308;30;20304;-80
2023/08/12 07:16:12;;;;;;;3.45;2.90;;;;;;;24.31;63.09;95503.88;4771951;30;20632;-80
2023/08/12 07:18:39;;;;;;;4.35;3.28;;;;;;;24.47;62.73;95473.06;4770373;30;20242;-79
2023/08/12 07:21:06;;;;;;;3.42;3.10;;;;;;;24.58;62.60;95469.38;4755561;30;20201;-79
2023/08/12 07:23:33;;;;;;;4.72;3.60;;;;;;;24.73;62.04;95475.38;4754704;30;20661;-79
2023/08/12 07:25:59;;;;;;;3.85;3.15;;;;;;;24.81;61.43;95439.03;4754321;30;20269;-80
2023/08/12 07:28:26;;;;;;;3.20;2.90;;;;;;;24.91;61.78;95450.28;4754323;30;20212;-79
2023/08/12 07:30:52;;;;;;;3.40;3.10;;;;;;;25.01;61.85;95446.88;4754077;30;20232;-79
2023/08/12 07:33:20;;;;;;;2.92;2.72;;;;;;;25.17;61.26;95418.59;4760888;30;20232;-80
2023/08/12 07:35:46;;;;;;;4.70;3.22;;;;;;;25.34;60.51;95404.00;4770929;30;20242;-80
2023/08/12 07:38:14;;;;;;;3.58;3.00;;;;;;;25.54;60.60;95402.28;4772210;30;20277;-80
2023/08/12 07:40:41;;;;;;;3.80;3.40;;;;;;;25.65;59.85;95382.69;4761952;30;20219;-79
2023/08/12 07:43:07;;;;;;;3.30;3.00;;;;;;;25.83;59.41;95381.22;4754531;30;20232;-80
2023/08/12 07:45:34;;;;;;;3.35;3.05;;;;;;;26.02;58.43;95332.75;4753359;30;20212;-80
2023/08/12 07:48:01;;;;;;;3.08;2.85;;;;;;;26.31;59.19;95353.88;4770735;30;20212;-80
2023/08/12 07:50:27;;;;;;;3.38;3.15;;;;;;;26.55;57.41;95302.91;4770401;30;20340;-80
2023/08/12 07:52:53;;;;;;;3.55;3.00;;;;;;;26.69;57.62;95285.28;4772695;30;20239;-79
2023/08/12 07:55:21;;;;;;;3.42;2.88;;;;;;;26.65;56.81;95245.44;4772266;30;20572;-80
2023/08/12 07:57:48;;;;;;;2.88;2.67;;;;;;;26.63;56.62;95236.22;4772413;30;20311;-79
2023/08/12 08:00:14;;;;;;;3.38;3.08;;;;;;;26.63;56.32;95237.00;4772129;30;20215;-80
2023/08/12 08:02:41;;;;;;;2.95;2.72;;;;;;;26.63;56.83;95244.94;4772078;30;20250;-79
2023/08/12 08:05:08;;;;;;;3.70;3.33;;;;;;;26.61;56.44;95251.56;4765347;30;20207;-80
2023/08/12 08:07:34;;;;;;;3.00;2.80;;;;;;;26.66;57.46;95277.91;4764718;30;20212;-80
2023/08/12 08:10:01;;;;;;;3.80;3.38;;;;;;;26.75;57.72;95316.59;4766922;30;20239;-80
2023/08/12 08:12:29;;;;;;;3.35;3.10;;;;;;;27.03;56.24;95250.72;4771288;30;20239;-81
2023/08/12 08:14:55;;;;;;;4.93;2.85;;;;;;;27.15;55.51;95206.09;4772053;30;20218;-80
2023/08/12 08:17:21;;;;;;;5.07;3.20;;;;;;;27.39;56.01;95217.31;4772069;30;20582;-79
2023/08/12 08:19:48;;;;;;;3.22;3.03;;;;;;;27.63;55.05;95188.09;4771121;30;20204;-80
2023/08/12 08:22:14;;;;;;;3.33;3.03;;;;;;;27.70;53.88;95129.53;4764269;30;20261;-80
2023/08/12 08:24:41;;;;;;;3.10;2.90;;;;;;;27.63;54.46;95135.19;4771464;30;20285;-80
2023/08/12 08:27:07;;;;;;;3.20;2.90;;;;;;;27.58;54.10;95140.56;4771423;30;20215;-79
2023/08/12 08:29:35;;;;;;;3.55;3.25;;;;;;;27.44;54.54;95134.47;4767437;30;20224;-80
2023/08/12 08:32:01;;;;;;;3.20;2.90;;;;;;;27.42;54.15;95128.69;4753770;30;20240;-80
2023/08/12 08:34:28;;;;;;;3.08;2.88;;;;;;;27.47;54.31;95133.91;4753888;30;20219;-80
2023/08/12 08:36:54;;;;;;;3.17;2.97;;;;;;;27.73;53.70;95113.81;4758078;30;20210;-79
2023/08/12 08:39:21;;;;;;;3.45;3.08;;;;;;;27.81;53.10;95110.47;4770394;30;20227;-79
2023/08/12 08:41:49;;;;;;;4.15;3.30;;;;;;;27.79;54.18;95133.03;4770358;30;20224;-80
2023/08/12 08:44:16;;;;;;;2.90;2.70;;;;;;;27.76;54.03;95134.41;4767533;30;20201;-79
2023/08/12 08:46:44;;;;;;;3.20;3.00;;;;;;;27.67;53.90;95135.41;4752706;30;20212;-80
2023/08/12 08:49:12;;;;;;;4.50;3.03;;;;;;;27.61;54.06;95141.84;4753607;30;20653;-80
2023/08/12 08:51:39;;;;;;;3.30;3.10;;;;;;;27.56;54.84;95163.84;4753589;30;20232;-79
2023/08/12 08:54:06;;;;;;;3.30;3.10;;;;;;;27.46;54.59;95164.06;4758598;30;20302;-80
2023/08/12 08:56:33;;;;;;;4.35;3.10;;;;;;;27.42;54.68;95185.03;4761614;30;20649;-80
2023/08/12 08:59:00;;;;;;;3.63;2.97;;;;;;;27.38;53.74;95127.72;4753468;30;20208;-79
2023/08/12 09:01:27;;;;;;;5.05;3.10;;;;;;;27.32;53.90;95142.91;4752849;30;20204;-80
2023/08/12 09:03:56;;;;;;;3.80;3.03;;;;;;;27.23;54.41;95155.22;4753552;30;20587;-80
2023/08/12 09:06:24;;;;;;;2.95;2.70;;;;;;;27.23;54.96;95191.44;4771204;30;20549;-80
2023/08/12 09:08:53;;;;;;;3.13;2.80;;;;;;;27.23;54.84;95197.53;4769540;30;20207;-80
2023/08/12 09:11:20;;;;;;;3.28;3.08;;;;;;;27.28;55.09;95207.22;4770778;30;20231;-79
2023/08/12 09:13:47;;;;;;;4.07;3.10;;;;;;;27.28;54.98;95208.00;4772686;30;20231;-80
2023/08/12 09:16:14;;;;;;;3.35;3.05;;;;;;;27.33;56.13;95238.84;4764107;30;20209;-79
2023/08/12 09:18:42;;;;;;;3.53;3.22;;;;;;;27.35;56.53;95257.84;4771579;30;20211;-80
2023/08/12 09:21:11;;;;;;;3.17;2.97;;;;;;;27.32;56.40;95258.47;4772917;30;20207;-80
2023/08/12 09:23:38;;;;;;;3.50;3.20;;;;;;;27.33;57.33;95297.03;4771802;30;20231;-80
2023/08/12 09:26:13;;;;;;;3.70;3.40;;;;;;;27.52;56.84;95290.63;4777735;30;20211;-79
2023/08/12 09:28:39;;;;;;;3.55;3.25;;;;;;;27.76;55.78;95250.03;4779024;30;20230;-79
2023/08/12 09:31:06;;;;;;;3.60;3.30;;;;;;;27.88;55.92;95229.19;4777928;30;20291;-80
2023/08/12 09:33:33;;;;;;;3.60;3.30;;;;;;;28.06;56.15;95268.00;4774920;30;20231;-80
2023/08/12 09:35:59;;;;;;;7.07;3.55;;;;;;;28.40;56.33;95272.09;4761993;30;20265;-82
2023/08/12 09:38:27;;;;;;;3.75;3.45;;;;;;;28.37;55.61;95231.09;4752669;30;20209;-82
2023/08/12 09:40:54;;;;;;;3.75;3.47;;;;;;;28.28;54.96;95210.94;4753281;30;20208;-82
2023/08/12 09:43:24;;;;;;;3.80;3.42;;;;;;;28.12;54.99;95221.78;4766201;30;20452;-83
2023/08/12 09:45:51;;;;;;;3.40;3.17;;;;;;;28.04;55.13;95203.19;4769775;30;20675;-82
2023/08/12 09:48:17;;;;;;;3.60;3.30;;;;;;;27.95;54.60;95186.41;4769655;30;20211;-80
2023/08/12 09:50:44;;;;;;;3.58;3.28;;;;;;;27.88;55.84;95234.47;4753599;30;20236;-80
2023/08/12 09:53:10;;;;;;;4.03;3.30;;;;;;;27.90;55.47;95236.81;4752655;30;20232;-80
2023/08/12 09:55:41;;;;;;;3.58;3.35;;;;;;;27.91;54.63;95196.81;4752379;30;20278;-80
2023/08/12 09:58:10;;;;;;;3.70;3.40;;;;;;;27.88;54.01;95163.00;4756247;30;20259;-80
2023/08/12 10:00:37;;;;;;;3.47;3.28;;;;;;;28.12;54.64;95179.44;4769564;30;20219;-80
2023/08/12 10:03:05;;;;;;;4.10;3.30;;;;;;;28.30;54.06;95130.09;4764643;30;20646;-80
2023/08/12 10:05:33;;;;;;;4.13;3.40;;;;;;;28.45;54.05;95135.06;4769849;30;20212;-80
2023/08/12 10:08:03;;;;;;;3.60;3.40;;;;;;;28.64;53.54;95113.69;4770921;30;20311;-80
2023/08/12 10:10:31;;;;;;;3.45;3.20;;;;;;;28.81;52.96;95108.53;4770157;30;20606;-80
2023/08/12 10:13:00;;;;;;;4.47;3.30;;;;;;;28.97;51.33;95041.84;4773968;30;20239;-80
2023/08/12 10:15:27;;;;;;;3.92;3.30;;;;;;;29.18;51.15;95013.72;4768203;30;20426;-79
2023/08/12 10:17:53;;;;;;;3.42;3.22;;;;;;;29.49;51.21;95030.34;4773750;30;20316;-80
2023/08/12 10:20:21;;;;;;;3.70;3.35;;;;;;;29.81;49.93;94972.63;4769854;30;20241;-80
2023/08/12 10:22:49;;;;;;;3.95;3.45;;;;;;;29.84;49.74;94935.59;4773769;30;20231;-79
2023/08/12 10:25:18;;;;;;;3.60;3.30;;;;;;;29.70;49.44;94931.56;4773482;30;20695;-79
2023/08/12 10:27:45;;;;;;;3.38;3.17;;;;;;;29.50;49.72;94917.81;4774002;30;20215;-79
2023/08/12 10:30:14;;;;;;;3.70;3.40;;;;;;;29.81;49.95;94949.53;4770510;30;20227;-80
2023/08/12 10:32:40;;;;;;;3.97;3.35;;;;;;;30.23;50.05;94955.09;4772510;30;20254;-79
2023/08/12 10:35:08;;;;;;;3.25;2.97;;;;;;;30.38;46.92;94807.72;4772928;30;20242;-79
2023/08/12 10:37:35;;;;;;;3.40;2.80;;;;;;;30.69;46.45;94778.94;4760696;30;20571;-80
2023/08/12 10:40:07;;;;;;;4.07;3.63;;;;;;;30.93;46.80;94791.59;4755181;30;20286;-80
2023/08/12 10:42:51;;;;;;;2.92;2.72;;;;;;;30.92;45.45;94732.31;4755223;30;21117;-80
2023/08/12 10:45:19;;;;;;;3.25;2.95;;;;;;;30.98;45.37;94702.88;4756469;30;20208;-80
2023/08/12 10:47:52;;;;;;;3.30;3.00;;;;;;;31.19;44.88;94715.03;4767877;30;20219;-80
2023/08/12 10:50:19;;;;;;;3.47;3.17;;;;;;;31.07;45.75;94719.53;4773724;30;20219;-80
2023/08/12 10:52:46;;;;;;;2.97;2.78;;;;;;;31.13;44.07;94615.31;4773216;30;20223;-80
2023/08/12 10:55:20;;;;;;;3.00;2.80;;;;;;;31.26;42.97;94584.16;4773769;30;20222;-80
2023/08/12 10:57:47;;;;;;;3.60;2.63;;;;;;;31.38;42.95;94586.81;4761946;30;20212;-80
2023/08/12 11:00:16;;;;;;;3.08;2.88;;;;;;;31.52;43.03;94581.97;4768577;30;20207;-80
2023/08/12 11:02:49;;;;;;;2.97;2.75;;;;;;;31.65;43.24;94611.22;4772013;30;20244;-80
2023/08/12 11:05:15;;;;;;;3.15;2.75;;;;;;;31.65;42.62;94565.97;4773429;30;20222;-80
2023/08/12 11:07:43;;;;;;;3.42;2.70;;;;;;;31.64;42.19;94540.47;4772309;30;21108;-80
2023/08/12 11:10:15;;;;;;;2.95;2.65;;;;;;;31.72;42.71;94582.97;4773083;30;20208;-80
2023/08/12 11:12:46;;;;;;;2.97;2.78;;;;;;;31.72;41.78;94519.09;4772044;30;20270;-80
2023/08/12 11:15:13;;;;;;;3.20;3.00;;;;;;;31.69;41.34;94518.97;4772826;30;20210;-80
2023/08/12 11:17:41;;;;;;;2.90;2.70;;;;;;;31.65;42.44;94561.44;4773122;30;20211;-80
2023/08/12 11:20:10;;;;;;;3.53;2.92;;;;;;;31.68;41.61;94502.22;4771766;30;20212;-79
2023/08/12 11:22:40;;;;;;;3.10;2.90;;;;;;;31.78;41.51;94508.97;4772912;30;20227;-80
2023/08/12 11:25:08;;;;;;;3.70;3.40;;;;;;;31.84;41.21;94495.09;4764752;30;20212;-80
2023/08/12 11:27:40;;;;;;;4.25;3.90;;;;;;;31.86;40.69;94478.78;4770910;30;20211;-80
2023/08/12 11:30:08;;;;;;;3.80;3.50;;;;;;;31.77;41.55;94515.41;4774117;30;20222;-80
2023/08/12 11:32:35;;;;;;;4.28;3.90;;;;;;;31.90;42.57;94588.84;4774187;30;20235;-80
2023/08/12 11:35:02;;;;;;;6.32;4.78;;;;;;;31.91;41.28;94529.13;4772282;30;20265;-80